Time;durP1;ratioP1;P1;durP2;ratioP2;P2;SDS_P1;SDS_P2;PMS_P1;PMS_P2;Temp;Humidity;BMP_temperature;BMP_pressure;BME280_temperature;BME280_humidity;BME280_pressure;Samples;Min_cycle;Max_cycle;Signal;HPM_P1;HPM_P2
2024/04/06 05:24:01;;;;;;;1.80;1.30;;;;;;;;;;6134213;23;20506;-89
2024/04/06 05:29:05;;;;;;;2.93;1.27;;;;;;;;;;6095466;23;20511;-89
2024/04/06 05:38:36;;;;;;;5.90;1.87;;;;;;;;;;6096625;23;20515;-87
2024/04/06 05:41:40;;;;;;;14.60;3.00;;;;;;;;;;6100389;23;20202;-87
2024/04/06 05:44:44;;;;;;;7.10;1.93;;;;;;;;;;6172089;23;20182;-87
2024/04/06 05:47:50;;;;;;;8.63;1.60;;;;;;;;;;6208023;23;20180;-88
2024/04/06 05:50:54;;;;;;;4.63;1.70;;;;;;;;;;6223724;23;20184;-88
2024/04/06 05:54:00;;;;;;;5.10;2.33;;;;;;;;;;6190884;23;20464;-88
2024/04/06 05:57:04;;;;;;;3.47;2.33;;;;;;;;;;6192421;23;20603;-86
2024/04/06 06:00:09;;;;;;;18.90;4.10;;;;;;;;;;6207822;23;20152;-86
2024/04/06 06:03:13;;;;;;;16.83;3.57;;;;;;;;;;6184315;23;20157;-85
2024/04/06 06:06:18;;;;;;;13.37;3.47;;;;;;;;;;6208071;23;20156;-85
2024/04/06 06:09:22;;;;;;;10.70;3.60;;;;;;;;;;6190692;23;20496;-85
2024/04/06 06:12:26;;;;;;;15.60;4.10;;;;;;;;;;6164556;23;20191;-85
2024/04/06 06:15:31;;;;;;;12.07;3.43;;;;;;;;;;6191057;23;20152;-86
2024/04/06 06:18:35;;;;;;;14.00;3.97;;;;;;;;;;6173859;23;20149;-86
2024/04/06 06:21:39;;;;;;;10.50;3.50;;;;;;;;;;6167632;23;20192;-86
2024/04/06 06:24:43;;;;;;;7.70;2.80;;;;;;;;;;6173727;23;20152;-86
2024/04/06 06:27:47;;;;;;;5.20;2.37;;;;;;;;;;6190575;23;20157;-87
2024/04/06 06:30:51;;;;;;;5.50;2.60;;;;;;;;;;6171191;23;20192;-87
2024/04/06 06:33:57;;;;;;;6.50;1.77;;;;;;;;;;6173513;23;20152;-86
2024/04/06 06:37:02;;;;;;;3.87;1.70;;;;;;;;;;6191197;23;20160;-87
2024/04/06 06:40:06;;;;;;;4.90;2.03;;;;;;;;;;6210832;23;20464;-87
2024/04/06 06:43:10;;;;;;;5.67;2.40;;;;;;;;;;6176863;23;20148;-87
2024/04/06 06:46:14;;;;;;;5.13;2.00;;;;;;;;;;6210321;23;20156;-87
2024/04/06 06:49:18;;;;;;;3.33;1.73;;;;;;;;;;6192963;23;20184;-87
2024/04/06 06:52:22;;;;;;;4.63;1.53;;;;;;;;;;6202187;23;20191;-87
2024/04/06 06:55:27;;;;;;;2.53;1.30;;;;;;;;;;6210931;23;20152;-87
2024/04/06 06:58:31;;;;;;;3.00;1.60;;;;;;;;;;6210306;23;20607;-87
2024/04/06 07:01:36;;;;;;;7.83;2.10;;;;;;;;;;6187160;23;20188;-87
2024/04/06 07:04:40;;;;;;;3.80;1.70;;;;;;;;;;6194347;23;20156;-87
2024/04/06 07:07:55;;;;;;;2.70;1.43;;;;;;;;;;6193726;23;20156;-86
2024/04/06 07:11:05;;;;;;;2.80;1.57;;;;;;;;;;6207641;23;20192;-87
2024/04/06 07:14:11;;;;;;;3.17;1.30;;;;;;;;;;6212417;23;20152;-87
2024/04/06 07:17:16;;;;;;;1.63;1.20;;;;;;;;;;6194173;23;20148;-87
2024/04/06 07:20:20;;;;;;;1.80;1.20;;;;;;;;;;6212685;23;20148;-87
2024/04/06 07:23:24;;;;;;;1.10;0.90;;;;;;;;;;6196331;23;20153;-87
2024/04/06 07:26:29;;;;;;;4.93;1.70;;;;;;;;;;6213148;23;20464;-86
2024/04/06 07:29:34;;;;;;;2.00;1.13;;;;;;;;;;6193161;23;20180;-87
2024/04/06 07:32:37;;;;;;;1.43;0.90;;;;;;;;;;6201555;23;20188;-87
2024/04/06 07:35:42;;;;;;;4.10;1.53;;;;;;;;;;6209831;23;20160;-88
2024/04/06 07:38:46;;;;;;;2.43;1.10;;;;;;;;;;6175566;23;20148;-87
2024/04/06 07:41:50;;;;;;;3.43;1.03;;;;;;;;;;6183337;23;20203;-87
2024/04/06 07:44:54;;;;;;;2.53;1.10;;;;;;;;;;6192584;23;20607;-87
2024/04/06 07:47:58;;;;;;;2.17;1.00;;;;;;;;;;6192376;23;20603;-87
2024/04/06 07:51:02;;;;;;;2.60;1.00;;;;;;;;;;6206412;23;20662;-87
2024/04/06 07:54:07;;;;;;;2.47;1.27;;;;;;;;;;6227709;23;20157;-87
2024/04/06 07:57:11;;;;;;;2.87;1.37;;;;;;;;;;6192380;23;20322;-87
2024/04/06 08:00:15;;;;;;;1.97;1.00;;;;;;;;;;6175365;23;20595;-87
2024/04/06 08:03:20;;;;;;;3.00;1.23;;;;;;;;;;6192064;23;20154;-87
2024/04/06 08:06:26;;;;;;;5.67;1.30;;;;;;;;;;6175034;23;20155;-88
2024/04/06 08:09:30;;;;;;;2.90;1.20;;;;;;;;;;6192247;23;20499;-88
2024/04/06 08:12:34;;;;;;;1.50;1.20;;;;;;;;;;6165756;23;20190;-87
2024/04/06 08:15:39;;;;;;;2.07;1.00;;;;;;;;;;6175114;23;20160;-87
2024/04/06 08:18:43;;;;;;;5.37;1.33;;;;;;;;;;6175085;23;20149;-87
2024/04/06 08:21:47;;;;;;;3.13;1.10;;;;;;;;;;6186303;23;20185;-87
2024/04/06 08:24:51;;;;;;;3.37;1.27;;;;;;;;;;6192147;23;20156;-87
2024/04/06 08:27:56;;;;;;;2.73;1.17;;;;;;;;;;6209211;23;20157;-88
2024/04/06 08:30:59;;;;;;;3.50;1.27;;;;;;;;;;6188943;23;20188;-87
2024/04/06 08:34:04;;;;;;;1.80;1.20;;;;;;;;;;6191457;23;20152;-87
2024/04/06 08:37:08;;;;;;;3.20;1.13;;;;;;;;;;6209046;23;20154;-87
2024/04/06 08:40:13;;;;;;;2.67;1.17;;;;;;;;;;6208747;23;20152;-86
2024/04/06 08:43:17;;;;;;;2.05;1.10;;;;;;;;;;6174734;23;20145;-87
2024/04/06 08:46:22;;;;;;;1.98;1.13;;;;;;;;;;6209077;23;20157;-87
2024/04/06 08:49:27;;;;;;;4.28;1.00;;;;;;;;;;6208377;23;20182;-87
2024/04/06 08:52:37;;;;;;;2.47;1.27;;;;;;;;;;6198985;23;20194;-87
2024/04/06 08:55:42;;;;;;;4.72;1.13;;;;;;;;;;6208770;23;20158;-87
2024/04/06 08:58:46;;;;;;;6.35;1.20;;;;;;;;;;6208564;23;20154;-88
2024/04/06 09:01:50;;;;;;;2.22;1.23;;;;;;;;;;6167964;23;20192;-87
2024/04/06 09:04:54;;;;;;;3.00;1.38;;;;;;;;;;6208849;23;20159;-87
2024/04/06 09:07:58;;;;;;;1.67;1.00;;;;;;;;;;6192073;23;20156;-88
2024/04/06 09:11:09;;;;;;;2.28;1.10;;;;;;;;;;6189080;23;20197;-88
2024/04/06 09:14:13;;;;;;;3.13;1.20;;;;;;;;;;6191930;23;20163;-88
2024/04/06 09:17:19;;;;;;;4.63;1.60;;;;;;;;;;6192535;23;20148;-88
2024/04/06 09:20:23;;;;;;;3.47;1.40;;;;;;;;;;6192510;23;20160;-88
2024/04/06 09:23:27;;;;;;;3.67;1.42;;;;;;;;;;6209651;23;20155;-89
2024/04/06 09:26:33;;;;;;;4.32;1.45;;;;;;;;;;6227675;23;20156;-88
2024/04/06 09:29:38;;;;;;;3.08;1.10;;;;;;;;;;6191772;23;20183;-88
2024/04/06 09:32:45;;;;;;;2.33;1.40;;;;;;;;;;6181685;23;20510;-89
2024/04/06 09:35:50;;;;;;;3.22;1.60;;;;;;;;;;6191474;23;20152;-90
2024/04/06 09:38:55;;;;;;;4.22;1.55;;;;;;;;;;6191772;23;20153;-90
2024/04/06 09:42:01;;;;;;;2.97;1.40;;;;;;;;;;6202473;23;20504;-85
2024/04/06 09:45:07;;;;;;;4.78;1.67;;;;;;;;;;6191770;23;20153;-85
2024/04/06 09:48:11;;;;;;;3.50;1.20;;;;;;;;;;6227145;23;20468;-85
2024/04/06 09:51:16;;;;;;;3.22;1.38;;;;;;;;;;6205006;23;20192;-85
2024/04/06 09:54:21;;;;;;;2.60;1.10;;;;;;;;;;6209172;23;20153;-85
2024/04/06 09:57:25;;;;;;;3.00;1.13;;;;;;;;;;6226720;23;20484;-85
2024/04/06 10:00:30;;;;;;;3.05;1.50;;;;;;;;;;6191158;23;20600;-85
2024/04/06 10:03:42;;;;;;;1.88;1.25;;;;;;;;;;6227093;23;20156;-84
2024/04/06 10:06:56;;;;;;;2.35;1.40;;;;;;;;;;6227459;23;20157;-85
2024/04/06 10:10:08;;;;;;;3.05;1.35;;;;;;;;;;6210881;23;20185;-83
2024/04/06 10:13:18;;;;;;;3.90;1.25;;;;;;;;;;6226089;23;20445;-85
2024/04/06 10:16:25;;;;;;;4.53;1.20;;;;;;;;;;6226348;23;20148;-84
2024/04/06 10:19:29;;;;;;;2.35;1.17;;;;;;;;;;6208109;23;20149;-84
2024/04/06 10:22:43;;;;;;;1.83;0.90;;;;;;;;;;6199088;23;20196;-84
2024/04/06 10:25:47;;;;;;;2.53;1.25;;;;;;;;;;6208135;23;20156;-84
2024/04/06 10:28:51;;;;;;;3.33;1.30;;;;;;;;;;6207707;23;20461;-86
2024/04/06 10:31:55;;;;;;;5.50;1.13;;;;;;;;;;6219897;23;20192;-86
2024/04/06 10:35:03;;;;;;;1.60;1.05;;;;;;;;;;6191904;23;20149;-86
2024/04/06 10:38:07;;;;;;;6.05;1.10;;;;;;;;;;6208448;23;20153;-84
2024/04/06 10:41:11;;;;;;;3.75;1.27;;;;;;;;;;6202396;23;20200;-83
2024/04/06 10:44:16;;;;;;;2.45;1.30;;;;;;;;;;6208968;23;20466;-82
2024/04/06 10:47:20;;;;;;;3.55;1.08;;;;;;;;;;6229309;23;20156;-85
2024/04/06 10:50:24;;;;;;;2.17;1.20;;;;;;;;;;6226643;23;20181;-85
2024/04/06 10:53:30;;;;;;;3.13;1.08;;;;;;;;;;6207864;23;20599;-85
2024/04/06 10:56:35;;;;;;;2.40;1.00;;;;;;;;;;6173820;23;20153;-86
2024/04/06 10:59:39;;;;;;;1.95;0.80;;;;;;;;;;6227931;23;20148;-86
2024/04/06 11:02:44;;;;;;;3.90;1.17;;;;;;;;;;6182791;23;20192;-86
2024/04/06 11:05:48;;;;;;;3.42;1.10;;;;;;;;;;6228439;23;20204;-86
2024/04/06 11:08:53;;;;;;;1.55;1.05;;;;;;;;;;6192721;23;20156;-86
2024/04/06 11:11:57;;;;;;;3.03;1.10;;;;;;;;;;6221657;23;20663;-85
2024/04/06 11:15:01;;;;;;;2.72;1.00;;;;;;;;;;6209832;23;20157;-85
2024/04/06 11:18:07;;;;;;;1.88;0.80;;;;;;;;;;6209592;23;20157;-85
2024/04/06 11:21:13;;;;;;;3.40;1.35;;;;;;;;;;6206209;23;20650;-85
2024/04/06 11:24:17;;;;;;;1.50;0.95;;;;;;;;;;6209698;23;20153;-86
2024/04/06 11:27:23;;;;;;;4.97;1.30;;;;;;;;;;6230950;23;20153;-84
2024/04/06 11:30:30;;;;;;;2.63;1.00;;;;;;;;;;6212252;23;20180;-85
2024/04/06 11:33:34;;;;;;;1.45;0.95;;;;;;;;;;6230546;23;20152;-85
2024/04/06 11:36:38;;;;;;;2.70;0.90;;;;;;;;;;6232243;23;20156;-85
2024/04/06 11:39:43;;;;;;;2.10;1.10;;;;;;;;;;6211180;23;20149;-84
2024/04/06 11:42:47;;;;;;;2.05;0.90;;;;;;;;;;6220416;23;20168;-84
2024/04/06 11:45:53;;;;;;;3.17;1.00;;;;;;;;;;6211326;23;20156;-87
2024/04/06 11:49:05;;;;;;;2.15;0.80;;;;;;;;;;6196703;23;20164;-86
2024/04/06 11:57:21;;;;;;;3.50;1.00;;;;;;;;;;6187015;23;20173;-89
2024/04/06 12:01:10;;;;;;;1.70;1.02;;;;;;;;;;6210024;23;20184;-84
2024/04/06 12:04:15;;;;;;;3.75;1.13;;;;;;;;;;6212437;23;20156;-83
2024/04/06 12:07:19;;;;;;;0.95;0.82;;;;;;;;;;6231306;23;20592;-84
2024/04/06 12:10:23;;;;;;;1.13;0.90;;;;;;;;;;6229766;23;20180;-83
2024/04/06 12:13:27;;;;;;;1.58;0.90;;;;;;;;;;6230479;23;20157;-82
2024/04/06 12:16:31;;;;;;;2.80;1.00;;;;;;;;;;6229867;23;20475;-83
2024/04/06 12:19:35;;;;;;;4.32;1.35;;;;;;;;;;6194555;23;20153;-83
2024/04/06 12:22:40;;;;;;;2.03;0.88;;;;;;;;;;6202758;23;20218;-83
2024/04/06 12:25:44;;;;;;;2.58;0.88;;;;;;;;;;6230403;23;20152;-83
2024/04/06 12:28:48;;;;;;;4.40;1.20;;;;;;;;;;6194542;23;20153;-83
2024/04/06 12:31:53;;;;;;;2.35;1.05;;;;;;;;;;6222940;23;20192;-83
2024/04/06 12:34:57;;;;;;;2.75;0.90;;;;;;;;;;6229311;23;20156;-83
2024/04/06 12:38:01;;;;;;;2.78;0.75;;;;;;;;;;6194620;23;20149;-82
2024/04/06 12:41:05;;;;;;;1.85;1.10;;;;;;;;;;6227398;23;20195;-84
2024/04/06 12:44:09;;;;;;;1.27;0.88;;;;;;;;;;6197011;23;20148;-84
2024/04/06 12:47:14;;;;;;;2.50;0.80;;;;;;;;;;6231968;23;20156;-84
2024/04/06 12:50:18;;;;;;;1.58;1.05;;;;;;;;;;6213969;23;20184;-84
2024/04/06 12:53:22;;;;;;;2.67;0.98;;;;;;;;;;6231814;23;20152;-83
2024/04/06 12:56:28;;;;;;;7.13;1.42;;;;;;;;;;6232473;23;20153;-84
2024/04/06 12:59:32;;;;;;;3.08;0.90;;;;;;;;;;6231889;23;20467;-84
2024/04/06 13:02:37;;;;;;;3.35;1.00;;;;;;;;;;6222028;23;20674;-84
2024/04/06 13:05:41;;;;;;;1.92;0.85;;;;;;;;;;6231284;23;20157;-84
2024/04/06 13:08:45;;;;;;;2.15;0.88;;;;;;;;;;6230026;23;20161;-82
2024/04/06 13:11:49;;;;;;;1.63;1.08;;;;;;;;;;6222418;23;20204;-83
2024/04/06 13:14:54;;;;;;;11.43;1.17;;;;;;;;;;6228953;23;20476;-82
2024/04/06 13:17:58;;;;;;;1.63;0.80;;;;;;;;;;6228867;23;20153;-82
2024/04/06 13:21:04;;;;;;;1.00;0.70;;;;;;;;;;6225195;23;20184;-82
2024/04/06 13:24:35;;;;;;;1.88;0.90;;;;;;;;;;6210568;23;20157;-83
2024/04/06 13:27:40;;;;;;;4.10;1.20;;;;;;;;;;6193057;23;20145;-82
2024/04/06 13:30:44;;;;;;;2.22;0.95;;;;;;;;;;6227401;23;20223;-82
2024/04/06 13:33:48;;;;;;;2.20;1.02;;;;;;;;;;6229470;23;20157;-83
2024/04/06 13:36:52;;;;;;;3.88;1.05;;;;;;;;;;6210911;23;20153;-83
2024/04/06 13:39:56;;;;;;;1.63;0.82;;;;;;;;;;6228613;23;20596;-83
2024/04/06 13:43:00;;;;;;;3.00;1.48;;;;;;;;;;6211583;23;20153;-84
2024/04/06 13:46:04;;;;;;;3.97;0.80;;;;;;;;;;6229930;23;20153;-83
2024/04/06 13:49:09;;;;;;;1.42;0.80;;;;;;;;;;6229077;23;20478;-83
2024/04/06 13:52:13;;;;;;;1.98;0.82;;;;;;;;;;6203843;23;20643;-84
2024/04/06 13:55:18;;;;;;;6.68;1.00;;;;;;;;;;6208415;23;20583;-85
2024/04/06 13:58:22;;;;;;;1.60;0.80;;;;;;;;;;6208219;23;20152;-84
2024/04/06 14:01:26;;;;;;;2.60;0.80;;;;;;;;;;6221538;23;20184;-85
2024/04/06 14:04:30;;;;;;;0.73;0.70;;;;;;;;;;6226250;23;20153;-85
2024/04/06 14:07:35;;;;;;;2.03;0.73;;;;;;;;;;6191205;23;20156;-84
2024/04/06 14:10:39;;;;;;;1.70;0.65;;;;;;;;;;6206507;23;20180;-84
2024/04/06 14:13:44;;;;;;;3.38;0.85;;;;;;;;;;6208059;23;20148;-85
2024/04/06 14:16:50;;;;;;;1.67;0.77;;;;;;;;;;6208147;23;20152;-85
2024/04/06 14:19:54;;;;;;;2.80;1.00;;;;;;;;;;6190435;23;20157;-85
2024/04/06 14:23:00;;;;;;;3.85;0.80;;;;;;;;;;6207921;23;20153;-85
2024/04/06 14:26:05;;;;;;;1.00;0.77;;;;;;;;;;6227705;23;20152;-83
2024/04/06 14:29:13;;;;;;;4.88;1.00;;;;;;;;;;6193436;23;20161;-83
2024/04/06 14:32:17;;;;;;;2.97;0.77;;;;;;;;;;6219386;23;20200;-83
2024/04/06 14:35:21;;;;;;;4.03;1.10;;;;;;;;;;6227768;23;20156;-83
2024/04/06 14:38:25;;;;;;;1.83;0.88;;;;;;;;;;6228180;23;20156;-83
2024/04/06 14:41:30;;;;;;;2.22;0.85;;;;;;;;;;6223432;23;20196;-84
2024/04/06 14:44:34;;;;;;;1.20;0.60;;;;;;;;;;6208279;23;20148;-83
2024/04/06 14:47:38;;;;;;;1.23;0.80;;;;;;;;;;6226717;23;20152;-84
2024/04/06 14:50:42;;;;;;;2.83;0.80;;;;;;;;;;6174338;23;20204;-85
2024/04/06 14:53:46;;;;;;;1.08;0.80;;;;;;;;;;6211846;23;20153;-83
2024/04/06 14:56:51;;;;;;;2.05;0.90;;;;;;;;;;6184360;23;20185;-83
2024/04/06 14:59:55;;;;;;;2.58;0.90;;;;;;;;;;6231260;23;20153;-84
2024/04/06 15:03:00;;;;;;;5.25;1.17;;;;;;;;;;6210168;23;20149;-82
2024/04/06 15:06:29;;;;;;;4.60;0.80;;;;;;;;;;6228031;23;20152;-86
2024/04/06 15:10:25;;;;;;;3.78;0.80;;;;;;;;;;6184932;23;20172;-87
2024/04/06 15:15:02;;;;;;;1.48;0.82;;;;;;;;;;6227414;23;20177;-87
2024/04/06 15:18:09;;;;;;;3.80;0.90;;;;;;;;;;6174048;23;20463;-87
2024/04/06 15:21:21;;;;;;;2.58;0.90;;;;;;;;;;6187689;23;20631;-87
2024/04/06 15:24:27;;;;;;;2.13;0.82;;;;;;;;;;6173887;23;20152;-86
2024/04/06 15:27:32;;;;;;;1.52;0.65;;;;;;;;;;6173364;23;20155;-85
2024/04/06 15:30:36;;;;;;;6.85;0.80;;;;;;;;;;6147952;23;20492;-85
2024/04/06 15:33:40;;;;;;;2.75;0.90;;;;;;;;;;6173758;23;20160;-84
2024/04/06 15:36:44;;;;;;;2.80;0.63;;;;;;;;;;6190301;23;20156;-85
2024/04/06 15:40:13;;;;;;;2.08;0.60;;;;;;;;;;6173541;23;20156;-87
2024/04/06 15:43:18;;;;;;;1.20;0.70;;;;;;;;;;6209246;23;20614;-85
2024/04/06 15:46:22;;;;;;;0.77;0.60;;;;;;;;;;6175108;23;20152;-85
2024/04/06 15:49:27;;;;;;;0.88;0.77;;;;;;;;;;6165597;23;20590;-84
2024/04/06 15:52:31;;;;;;;2.28;0.77;;;;;;;;;;6167553;23;20204;-85
2024/04/06 15:55:35;;;;;;;3.85;0.60;;;;;;;;;;6211775;23;20150;-85
2024/04/06 15:58:40;;;;;;;2.33;0.80;;;;;;;;;;6193683;23;20152;-85
2024/04/06 16:01:45;;;;;;;3.25;0.73;;;;;;;;;;6203776;23;20186;-89
2024/04/06 16:05:13;;;;;;;6.60;0.90;;;;;;;;;;6209213;23;20156;-89
2024/04/06 16:08:19;;;;;;;1.80;0.95;;;;;;;;;;6191802;23;20159;-86
2024/04/06 16:11:23;;;;;;;1.73;0.68;;;;;;;;;;6206422;23;20195;-83
2024/04/06 16:14:27;;;;;;;1.48;0.82;;;;;;;;;;6231859;23;20600;-83
2024/04/06 16:17:31;;;;;;;2.30;0.80;;;;;;;;;;6212092;23;20158;-83
2024/04/06 16:20:35;;;;;;;2.67;0.85;;;;;;;;;;6229821;23;20156;-84
2024/04/06 16:23:40;;;;;;;3.45;0.80;;;;;;;;;;6213670;23;20153;-84
2024/04/06 16:26:44;;;;;;;1.10;0.85;;;;;;;;;;6212888;23;20154;-84
2024/04/06 16:29:48;;;;;;;2.38;0.70;;;;;;;;;;6232030;23;20156;-83
2024/04/06 16:32:52;;;;;;;1.27;0.82;;;;;;;;;;6231295;23;20186;-84
2024/04/06 16:35:56;;;;;;;1.73;0.88;;;;;;;;;;6230297;23;20155;-84
2024/04/06 16:39:00;;;;;;;1.65;0.70;;;;;;;;;;6212608;23;20601;-83
2024/04/06 16:42:04;;;;;;;0.80;0.70;;;;;;;;;;6176773;23;20528;-84
2024/04/06 16:45:09;;;;;;;3.88;0.85;;;;;;;;;;6221716;23;20162;-83
2024/04/06 16:48:14;;;;;;;1.70;0.60;;;;;;;;;;6242691;23;20155;-83
2024/04/06 16:51:19;;;;;;;4.47;0.90;;;;;;;;;;6223383;23;20203;-86
2024/04/06 16:54:23;;;;;;;1.20;0.90;;;;;;;;;;6224993;23;20149;-83
2024/04/06 16:57:27;;;;;;;1.70;0.90;;;;;;;;;;6226969;23;20157;-83
2024/04/06 17:00:32;;;;;;;1.30;1.00;;;;;;;;;;6226771;23;20153;-83
2024/04/06 17:03:36;;;;;;;0.87;0.60;;;;;;;;;;6208357;23;20151;-82
2024/04/06 17:06:41;;;;;;;5.47;0.90;;;;;;;;;;6245370;23;20153;-83
2024/04/06 17:09:46;;;;;;;1.30;0.80;;;;;;;;;;6226845;23;20158;-82
2024/04/06 17:12:50;;;;;;;1.13;0.73;;;;;;;;;;6236687;23;20515;-82
2024/04/06 17:15:54;;;;;;;1.00;0.87;;;;;;;;;;6244699;23;20159;-82
2024/04/06 17:18:58;;;;;;;1.80;1.10;;;;;;;;;;6243993;23;20155;-82
2024/04/06 17:22:03;;;;;;;2.07;0.80;;;;;;;;;;6237914;23;20187;-83
2024/04/06 17:25:07;;;;;;;1.57;0.90;;;;;;;;;;6244147;23;20154;-83
2024/04/06 17:28:12;;;;;;;1.00;0.73;;;;;;;;;;6244503;23;20160;-82
2024/04/06 17:31:17;;;;;;;1.57;0.93;;;;;;;;;;6224413;23;20204;-82
2024/04/06 17:34:21;;;;;;;1.30;0.80;;;;;;;;;;6241788;23;20157;-83
2024/04/06 17:37:26;;;;;;;1.17;0.70;;;;;;;;;;6218911;23;20153;-84
2024/04/06 17:40:30;;;;;;;2.57;1.00;;;;;;;;;;6219515;23;20464;-83
2024/04/06 17:43:34;;;;;;;1.20;0.70;;;;;;;;;;6218032;23;20453;-84
2024/04/06 17:46:38;;;;;;;4.03;1.17;;;;;;;;;;6238258;23;20156;-83
2024/04/06 17:49:42;;;;;;;1.63;1.00;;;;;;;;;;6204000;23;20148;-83
2024/04/06 17:52:47;;;;;;;1.90;1.03;;;;;;;;;;6211850;23;20196;-83
2024/04/06 17:55:50;;;;;;;1.00;0.70;;;;;;;;;;6238083;23;20464;-83
2024/04/06 17:58:55;;;;;;;1.50;0.90;;;;;;;;;;6217035;23;20464;-84
2024/04/06 18:01:59;;;;;;;3.07;1.20;;;;;;;;;;6231550;23;20184;-83
2024/04/06 18:05:04;;;;;;;1.97;0.97;;;;;;;;;;6232855;23;20148;-83
2024/04/06 18:08:08;;;;;;;2.43;1.00;;;;;;;;;;6215762;23;20160;-83
2024/04/06 18:11:14;;;;;;;1.33;0.97;;;;;;;;;;6214374;23;20188;-83
2024/04/06 18:14:18;;;;;;;3.47;0.93;;;;;;;;;;6199951;23;20148;-84
2024/04/06 18:17:24;;;;;;;2.03;1.10;;;;;;;;;;6216939;23;20156;-83
2024/04/06 18:20:28;;;;;;;3.73;1.00;;;;;;;;;;6235038;23;20156;-84
2024/04/06 18:23:33;;;;;;;2.57;1.23;;;;;;;;;;6233931;23;20148;-83
2024/04/06 18:26:37;;;;;;;1.97;1.00;;;;;;;;;;6214831;23;20152;-83
2024/04/06 18:29:41;;;;;;;5.50;1.17;;;;;;;;;;6214382;23;20607;-83
2024/04/06 18:32:46;;;;;;;3.40;1.00;;;;;;;;;;6188708;23;20195;-82
2024/04/06 18:35:52;;;;;;;2.53;1.10;;;;;;;;;;6213299;23;20152;-83
2024/04/06 18:38:56;;;;;;;5.33;1.07;;;;;;;;;;6180196;23;20152;-82
2024/04/06 18:42:00;;;;;;;2.80;1.10;;;;;;;;;;6210461;23;20191;-83
2024/04/06 18:45:05;;;;;;;2.83;1.23;;;;;;;;;;6215600;23;20152;-82
2024/04/06 18:48:10;;;;;;;5.20;1.20;;;;;;;;;;6215089;23;20152;-82
2024/04/06 18:51:16;;;;;;;1.53;1.03;;;;;;;;;;6213936;23;20184;-83
2024/04/06 18:54:21;;;;;;;4.00;1.20;;;;;;;;;;6198101;23;20152;-82
2024/04/06 18:57:28;;;;;;;1.83;1.10;;;;;;;;;;6214895;23;20157;-82
2024/04/06 19:00:32;;;;;;;2.37;1.40;;;;;;;;;;6178761;23;20156;-83
2024/04/06 19:03:36;;;;;;;1.27;0.90;;;;;;;;;;6213067;23;20152;-82
2024/04/06 19:06:40;;;;;;;2.33;0.80;;;;;;;;;;6213726;23;20148;-82
2024/04/06 19:09:44;;;;;;;2.10;0.90;;;;;;;;;;6213259;23;20152;-82
2024/04/06 19:12:49;;;;;;;3.43;0.80;;;;;;;;;;6221942;23;20196;-81
2024/04/06 19:15:56;;;;;;;1.67;1.00;;;;;;;;;;6196058;23;20152;-82
2024/04/06 19:19:03;;;;;;;4.20;1.10;;;;;;;;;;6214097;23;20157;-82
2024/04/06 19:22:07;;;;;;;2.67;0.80;;;;;;;;;;6228164;23;20188;-84
2024/04/06 19:25:11;;;;;;;1.53;1.03;;;;;;;;;;6214584;23;20156;-82
2024/04/06 19:28:15;;;;;;;2.60;0.80;;;;;;;;;;6215048;23;20152;-82
2024/04/06 19:31:19;;;;;;;1.20;0.90;;;;;;;;;;6196141;23;20192;-81
2024/04/06 19:34:23;;;;;;;2.33;1.00;;;;;;;;;;6214128;23;20152;-83
2024/04/06 19:37:28;;;;;;;3.70;1.33;;;;;;;;;;6232427;23;20152;-84
2024/04/06 19:40:32;;;;;;;2.87;0.90;;;;;;;;;;6231746;23;20152;-84
2024/04/06 19:43:36;;;;;;;2.10;1.00;;;;;;;;;;6232413;23;20152;-83
2024/04/06 19:46:40;;;;;;;5.83;0.93;;;;;;;;;;6214478;23;20148;-83
2024/04/06 19:49:45;;;;;;;1.30;0.87;;;;;;;;;;6213393;23;20156;-83
2024/04/06 19:52:49;;;;;;;5.13;1.10;;;;;;;;;;6204687;23;20199;-82
2024/04/06 19:55:53;;;;;;;5.17;1.40;;;;;;;;;;6214329;23;20148;-83
2024/04/06 19:58:59;;;;;;;3.60;1.50;;;;;;;;;;6213494;23;20156;-83
2024/04/06 20:02:04;;;;;;;2.53;1.90;;;;;;;;;;6227253;23;20187;-83
2024/04/06 20:05:08;;;;;;;3.30;2.10;;;;;;;;;;6196054;23;20156;-83
2024/04/06 20:08:13;;;;;;;7.60;2.00;;;;;;;;;;6196384;23;20156;-83
2024/04/06 20:11:19;;;;;;;4.80;1.97;;;;;;;;;;6215056;23;20192;-86
2024/04/06 20:14:28;;;;;;;2.57;1.73;;;;;;;;;;6237051;23;20160;-85
2024/04/06 20:17:32;;;;;;;2.47;1.57;;;;;;;;;;6238016;23;20472;-87
2024/04/06 20:20:41;;;;;;;4.60;1.20;;;;;;;;;;6185522;23;20148;-85
2024/04/06 20:27:14;;;;;;;4.40;1.20;;;;;;;;;;6214833;23;20152;-86
2024/04/06 20:30:19;;;;;;;5.43;1.80;;;;;;;;;;6215613;23;20152;-85
2024/04/06 20:33:23;;;;;;;3.27;1.53;;;;;;;;;;6214815;23;20176;-85
2024/04/06 20:36:28;;;;;;;2.87;1.60;;;;;;;;;;6232333;23;20157;-86
2024/04/06 20:39:32;;;;;;;2.37;1.63;;;;;;;;;;6213875;23;20152;-86
2024/04/06 20:42:36;;;;;;;7.73;2.07;;;;;;;;;;6205819;23;20634;-86
2024/04/06 20:45:41;;;;;;;2.30;1.60;;;;;;;;;;6231764;23;20494;-86
2024/04/06 20:48:45;;;;;;;4.87;1.23;;;;;;;;;;6213618;23;20160;-86
2024/04/06 20:51:50;;;;;;;8.63;1.30;;;;;;;;;;6228215;23;20188;-86
2024/04/06 20:54:54;;;;;;;6.73;1.33;;;;;;;;;;6196435;23;20156;-85
2024/04/06 20:57:58;;;;;;;3.20;1.30;;;;;;;;;;6214149;23;20156;-85
2024/04/06 21:01:04;;;;;;;3.23;1.23;;;;;;;;;;6212870;23;20152;-86
2024/04/06 21:04:09;;;;;;;3.17;1.50;;;;;;;;;;6231482;23;20152;-85
2024/04/06 21:07:14;;;;;;;5.77;1.90;;;;;;;;;;6196739;23;20465;-86
2024/04/06 21:10:18;;;;;;;5.93;1.90;;;;;;;;;;6195775;23;20157;-86
2024/04/06 21:13:23;;;;;;;3.00;2.03;;;;;;;;;;6231911;23;20180;-86
2024/04/06 21:16:27;;;;;;;4.53;2.10;;;;;;;;;;6212797;23;20603;-85
2024/04/06 21:19:32;;;;;;;8.50;2.03;;;;;;;;;;6232720;23;20157;-85
2024/04/06 21:22:36;;;;;;;3.83;1.97;;;;;;;;;;6207077;23;20192;-86
2024/04/06 21:25:41;;;;;;;5.77;1.77;;;;;;;;;;6214293;23;20591;-86
2024/04/06 21:28:45;;;;;;;4.80;2.00;;;;;;;;;;6196825;23;20157;-85
2024/04/06 21:31:50;;;;;;;4.53;1.90;;;;;;;;;;6227941;23;20188;-85
2024/04/06 21:34:54;;;;;;;6.83;2.23;;;;;;;;;;6214082;23;20148;-85
2024/04/06 21:37:59;;;;;;;5.83;2.33;;;;;;;;;;6196316;23;20157;-85
2024/04/06 21:41:04;;;;;;;7.10;2.40;;;;;;;;;;6230191;23;20469;-85
2024/04/06 21:44:08;;;;;;;5.97;2.30;;;;;;;;;;6232326;23;20152;-86
2024/04/06 21:47:12;;;;;;;7.00;2.50;;;;;;;;;;6230983;23;20152;-86
2024/04/06 21:50:17;;;;;;;6.30;2.60;;;;;;;;;;6229245;23;20160;-85
2024/04/06 21:53:21;;;;;;;5.80;2.20;;;;;;;;;;6194895;23;20184;-85
2024/04/06 21:56:25;;;;;;;3.57;2.30;;;;;;;;;;6177895;23;20156;-85
2024/04/06 21:59:29;;;;;;;3.23;1.87;;;;;;;;;;6213646;23;20152;-85
2024/04/06 22:02:34;;;;;;;2.70;1.70;;;;;;;;;;6189019;23;20188;-85
2024/04/06 22:05:38;;;;;;;6.93;1.67;;;;;;;;;;6214870;23;20149;-85
2024/04/06 22:08:42;;;;;;;6.93;2.00;;;;;;;;;;6214155;23;20156;-85
2024/04/06 22:11:49;;;;;;;6.93;2.27;;;;;;;;;;6193453;23;20195;-85
2024/04/06 22:14:53;;;;;;;4.17;2.23;;;;;;;;;;6196343;23;20152;-85
2024/04/06 22:17:58;;;;;;;8.20;2.73;;;;;;;;;;6213124;23;20156;-85
2024/04/06 22:21:03;;;;;;;4.43;2.40;;;;;;;;;;6230911;23;20152;-85
2024/04/06 22:24:07;;;;;;;5.07;2.87;;;;;;;;;;6213466;23;20148;-85
2024/04/06 22:27:12;;;;;;;6.20;2.37;;;;;;;;;;6232029;23;20156;-85
2024/04/06 22:30:16;;;;;;;4.83;2.40;;;;;;;;;;6214046;23;20159;-85
2024/04/06 22:33:20;;;;;;;7.53;3.07;;;;;;;;;;6213149;23;20184;-85
2024/04/06 22:36:24;;;;;;;4.83;2.83;;;;;;;;;;6213950;23;20156;-85
2024/04/06 22:39:29;;;;;;;6.80;3.90;;;;;;;;;;6231740;23;20152;-84
2024/04/06 22:42:33;;;;;;;6.77;4.23;;;;;;;;;;6205591;23;20199;-85
2024/04/06 22:45:37;;;;;;;7.57;5.60;;;;;;;;;;6231340;23;20156;-86
2024/04/06 22:48:42;;;;;;;8.70;6.77;;;;;;;;;;6196140;23;20156;-86
2024/04/06 22:51:46;;;;;;;6.70;4.10;;;;;;;;;;6209197;23;20650;-86
2024/04/06 22:54:50;;;;;;;8.23;3.80;;;;;;;;;;6215465;23;20473;-85
2024/04/06 22:57:55;;;;;;;11.03;4.27;;;;;;;;;;6198013;23;20156;-86
2024/04/06 23:00:59;;;;;;;9.07;4.60;;;;;;;;;;6213782;23;20606;-85
2024/04/06 23:04:04;;;;;;;6.83;4.37;;;;;;;;;;6215239;23;20456;-86
2024/04/06 23:07:08;;;;;;;7.37;3.23;;;;;;;;;;6197876;23;20157;-86
2024/04/06 23:10:12;;;;;;;4.90;2.73;;;;;;;;;;6197793;23;20151;-85
2024/04/06 23:13:16;;;;;;;5.40;2.53;;;;;;;;;;6233478;23;20180;-85
2024/04/06 23:16:20;;;;;;;4.23;3.20;;;;;;;;;;6198022;23;20152;-86
2024/04/06 23:19:24;;;;;;;5.77;2.90;;;;;;;;;;6198430;23;20153;-86
2024/04/06 23:22:28;;;;;;;8.73;2.97;;;;;;;;;;6191434;23;20192;-85
2024/04/06 23:25:33;;;;;;;6.37;3.23;;;;;;;;;;6233832;23;20148;-86
2024/04/06 23:28:38;;;;;;;5.53;2.93;;;;;;;;;;6233217;23;20156;-86
2024/04/06 23:31:42;;;;;;;4.67;2.83;;;;;;;;;;6194075;23;20192;-86
2024/04/06 23:34:46;;;;;;;5.03;2.57;;;;;;;;;;6197805;23;20180;-87
2024/04/06 23:37:51;;;;;;;4.70;2.70;;;;;;;;;;6234399;23;20460;-86
2024/04/06 23:40:56;;;;;;;4.07;2.40;;;;;;;;;;6214756;23;20156;-86
2024/04/06 23:44:00;;;;;;;3.87;2.20;;;;;;;;;;6198559;23;20148;-86
2024/04/06 23:47:05;;;;;;;4.10;2.10;;;;;;;;;;6214533;23;20160;-87
2024/04/06 23:50:09;;;;;;;3.87;1.90;;;;;;;;;;6233377;23;20160;-86
2024/04/06 23:53:13;;;;;;;4.17;2.30;;;;;;;;;;6221755;23;20188;-86
2024/04/06 23:56:17;;;;;;;2.93;2.00;;;;;;;;;;6196283;23;20148;-85
2024/04/06 23:59:21;;;;;;;5.23;2.07;;;;;;;;;;6232439;23;20156;-86
